createdAt,value
2024-02-04T00:00:00.103Z,10.5
2024-02-04T00:05:00.103Z,11.6
2024-02-04T00:10:00.248Z,11.5
2024-02-04T00:15:00.142Z,12.8
2024-02-04T00:20:00.064Z,13
2024-02-04T00:25:00.105Z,14.5
2024-02-04T00:30:00.074Z,14.7
2024-02-04T00:35:00.209Z,14.7
2024-02-04T00:40:00.178Z,13.6
2024-02-04T00:45:00.081Z,12.6
2024-02-04T00:50:00.121Z,8.7
2024-02-04T00:55:00.183Z,9
2024-02-04T01:00:00.087Z,8.1
2024-02-04T01:05:00.131Z,7.1
2024-02-04T01:10:00.187Z,4.7
2024-02-04T01:15:00.135Z,4.9
2024-02-04T01:20:00.143Z,4.2
2024-02-04T01:25:00.147Z,2.5
2024-02-04T01:30:00.106Z,2.3
2024-02-04T01:35:00.193Z,2.2
2024-02-04T01:40:00.325Z,1.6
2024-02-04T01:45:00.110Z,1.4
2024-02-04T01:50:00.269Z,1.9
2024-02-04T01:55:00.255Z,2.1
2024-02-04T02:00:00.116Z,2
2024-02-04T02:05:00.159Z,2.5
2024-02-04T02:10:00.151Z,2.2
2024-02-04T02:15:00.112Z,3.1
2024-02-04T02:20:00.091Z,3.3
2024-02-04T02:25:00.107Z,2.5
2024-02-04T02:30:00.086Z,3.4
2024-02-04T02:35:00.213Z,3.2
2024-02-04T02:40:00.200Z,3.4
2024-02-04T02:45:00.078Z,4
2024-02-04T02:50:00.184Z,6.4
2024-02-04T02:55:00.250Z,6.8
2024-02-04T03:00:00.106Z,7.6
2024-02-04T03:05:00.085Z,8.3
2024-02-04T03:10:00.153Z,8.2
2024-02-04T03:15:00.180Z,6.9
2024-02-04T03:20:00.179Z,6.8
2024-02-04T03:25:00.198Z,6.4
2024-02-04T03:30:00.088Z,6.1
2024-02-04T03:35:00.130Z,6
2024-02-04T03:40:00.346Z,6.2
2024-02-04T03:45:00.094Z,5.5
2024-02-04T03:50:00.130Z,5.4
2024-02-04T03:55:00.285Z,5.7
2024-02-04T04:00:00.082Z,5.9
2024-02-04T04:05:00.115Z,6.8
2024-02-04T04:10:00.156Z,6.6
2024-02-04T04:15:00.181Z,6.1
2024-02-04T04:20:00.158Z,5.8
2024-02-04T04:25:00.095Z,6.3
2024-02-04T04:30:00.080Z,5.9
2024-02-04T04:35:00.157Z,5.8
2024-02-04T04:40:00.107Z,5.6
2024-02-04T04:45:00.079Z,5.4
2024-02-04T04:50:00.109Z,4.4
2024-02-04T04:55:00.191Z,4.7
2024-02-04T05:00:00.086Z,5.3
2024-02-04T05:05:00.125Z,5.3
2024-02-04T05:10:00.158Z,5.4
2024-02-04T05:15:00.130Z,4.8
2024-02-04T05:20:00.213Z,3.9
2024-02-04T05:25:00.153Z,3.3
2024-02-04T05:30:00.163Z,2.9
2024-02-04T05:35:00.248Z,2.7
2024-02-04T05:40:00.176Z,2.7
2024-02-04T05:45:00.078Z,2.2
2024-02-04T05:50:00.234Z,1
2024-02-04T05:55:03.423Z,0.5
2024-02-04T06:00:00.086Z,0.5
2024-02-04T06:05:00.099Z,0.6
2024-02-04T06:10:00.079Z,0.5
2024-02-04T06:15:00.138Z,0.5
2024-02-04T06:20:00.116Z,0.6
2024-02-04T06:25:00.181Z,0.5
2024-02-04T06:30:00.082Z,0.4
2024-02-04T06:35:00.244Z,0.4
2024-02-04T06:40:00.142Z,0.5
2024-02-04T06:45:00.072Z,0.4
2024-02-04T06:50:00.146Z,0.4
2024-02-04T06:55:00.136Z,1
2024-02-04T07:00:00.074Z,1.5
2024-02-04T07:05:00.076Z,1.8
2024-02-04T07:10:00.068Z,3
2024-02-04T07:15:00.215Z,4.3
2024-02-04T07:20:00.437Z,6.8
2024-02-04T07:25:00.106Z,7.9
2024-02-04T07:30:00.076Z,8.5
2024-02-04T07:35:00.290Z,8.7
2024-02-04T07:40:00.111Z,8.1
2024-02-04T07:45:00.066Z,7.5
2024-02-04T07:50:00.258Z,7.1
2024-02-04T07:55:00.154Z,6.9
2024-02-04T08:00:02.314Z,5.7
2024-02-04T08:05:00.186Z,5.2
2024-02-04T08:10:00.088Z,4.6
2024-02-04T08:15:00.126Z,5.6
2024-02-04T08:20:00.301Z,6.7
2024-02-04T08:25:00.103Z,7
2024-02-04T08:30:00.077Z,8.4
2024-02-04T08:35:00.177Z,8.4
2024-02-04T08:40:00.161Z,7.5
2024-02-04T08:45:00.075Z,6.1
2024-02-04T08:50:00.170Z,6.6
2024-02-04T08:55:00.153Z,6.3
2024-02-04T09:00:00.088Z,6.6
2024-02-04T09:05:00.140Z,7.1
2024-02-04T09:10:00.117Z,7.4
2024-02-04T09:15:00.156Z,7.8
2024-02-04T09:20:00.168Z,7.2
2024-02-04T09:25:00.164Z,6.5
2024-02-04T09:30:00.102Z,6.6
2024-02-04T09:35:00.435Z,6.4
2024-02-04T09:40:00.168Z,6.1
2024-02-04T09:45:00.075Z,6.4
2024-02-04T09:50:00.209Z,6.6
2024-02-04T09:55:00.223Z,6.9
2024-02-04T10:00:00.132Z,5.8
2024-02-04T10:05:00.206Z,6
2024-02-04T10:10:00.126Z,6.5
2024-02-04T10:15:00.167Z,5.8
2024-02-04T10:20:00.124Z,5.8
2024-02-04T10:25:00.106Z,6.8
2024-02-04T10:30:00.087Z,5.7
2024-02-04T10:35:00.257Z,5.7
2024-02-04T10:40:00.103Z,4.8
2024-02-04T10:45:00.079Z,4.1
2024-02-04T10:50:00.287Z,3.9
2024-02-04T10:55:00.108Z,4
2024-02-04T11:00:00.089Z,3.6
2024-02-04T11:05:00.206Z,3.7
2024-02-04T11:10:00.168Z,3.5
2024-02-04T11:15:00.137Z,3.6
2024-02-04T11:20:00.217Z,3.6
2024-02-04T11:25:00.110Z,4
2024-02-04T11:30:00.103Z,3.8
2024-02-04T11:35:00.354Z,4.2
2024-02-04T11:40:00.235Z,4
2024-02-04T11:45:00.089Z,3.9
2024-02-04T11:50:00.267Z,3.6
2024-02-04T11:55:00.224Z,3.4
2024-02-04T12:00:00.071Z,3.8
2024-02-04T12:05:00.116Z,3.9
2024-02-04T12:10:00.111Z,3.5
2024-02-04T12:15:00.141Z,3.5
2024-02-04T12:20:00.178Z,2.9
2024-02-04T12:25:00.096Z,2.8
2024-02-04T12:30:00.104Z,2.2
2024-02-04T12:35:00.180Z,2.2
2024-02-04T12:40:00.108Z,2.2
2024-02-04T12:45:00.099Z,2.2
2024-02-04T12:50:00.218Z,2
2024-02-04T12:55:00.142Z,2.4
2024-02-04T13:00:00.083Z,2.7
2024-02-04T13:05:00.098Z,2.1
2024-02-04T13:10:00.183Z,1.9
2024-02-04T13:15:00.126Z,2
2024-02-04T13:20:00.146Z,1.9
2024-02-04T13:25:00.128Z,2.2
2024-02-04T13:30:00.098Z,2.1
2024-02-04T13:35:05.541Z,2.4
2024-02-04T13:40:00.077Z,5.6
2024-02-04T13:45:00.085Z,2.3
2024-02-04T13:50:00.837Z,1.9
2024-02-04T13:55:00.251Z,15.4
2024-02-04T14:00:00.080Z,4.1
2024-02-04T14:05:00.169Z,4.1
2024-02-04T14:10:00.154Z,2.1
2024-02-04T14:15:00.107Z,1.5
2024-02-04T14:20:00.160Z,1.4
2024-02-04T14:25:00.111Z,1.3
2024-02-04T14:30:00.100Z,2
2024-02-04T14:35:00.252Z,1.6
2024-02-04T14:40:00.123Z,1.3
2024-02-04T14:45:00.086Z,1.4
2024-02-04T14:50:00.152Z,2.6
2024-02-04T14:55:00.183Z,1.4
2024-02-04T15:00:00.112Z,1.4
2024-02-04T15:05:00.077Z,1.3
2024-02-04T15:10:00.123Z,1.7
2024-02-04T15:15:00.113Z,1.7
2024-02-04T15:20:00.101Z,1.8
2024-02-04T15:25:00.123Z,1.4
2024-02-04T15:30:00.111Z,1.1
2024-02-04T15:35:00.178Z,1
2024-02-04T15:40:00.115Z,0.8
2024-02-04T15:45:00.092Z,0.7
2024-02-04T15:50:00.171Z,0.7
2024-02-04T15:55:00.140Z,0.9
2024-02-04T16:00:00.073Z,1
2024-02-04T16:05:00.166Z,0.7
2024-02-04T16:10:00.167Z,0.9
2024-02-04T16:15:00.152Z,1.6
2024-02-04T16:20:00.225Z,1.3
2024-02-04T16:25:00.113Z,1.2
2024-02-04T16:30:00.078Z,1.2
2024-02-04T16:35:00.199Z,1.6
2024-02-04T16:40:00.159Z,2.6
2024-02-04T16:45:00.075Z,9.3
2024-02-04T16:50:00.375Z,6.3
2024-02-04T16:55:00.250Z,2.3
2024-02-04T17:00:00.077Z,2.2
2024-02-04T17:10:00.131Z,3.2
2024-02-04T17:15:00.114Z,4
2024-02-04T17:20:00.259Z,2.2
2024-02-04T17:25:00.134Z,2
2024-02-04T17:30:00.096Z,1.8
2024-02-04T17:35:00.292Z,1.5
2024-02-04T17:40:00.125Z,1.5
2024-02-04T17:45:00.067Z,1.4
2024-02-04T17:50:00.382Z,1.8
2024-02-04T17:55:00.185Z,1.7
2024-02-04T18:00:00.095Z,1.9
2024-02-04T18:05:00.158Z,2
2024-02-04T18:10:00.221Z,1.8
2024-02-04T18:15:00.149Z,1.5
2024-02-04T18:20:00.201Z,2.1
2024-02-04T18:25:00.118Z,2.5
2024-02-04T18:30:00.095Z,2.5
2024-02-04T18:35:00.279Z,2.9
2024-02-04T18:40:00.191Z,2
2024-02-04T18:45:00.094Z,2.2
2024-02-04T18:50:00.704Z,5.9
2024-02-04T18:55:00.218Z,11.9
2024-02-04T19:00:00.095Z,23
2024-02-04T19:05:00.217Z,19.5
2024-02-04T19:10:00.196Z,3.5
2024-02-04T19:15:00.118Z,3.3
2024-02-04T19:20:00.181Z,3.1
2024-02-04T19:25:00.120Z,3.6
2024-02-04T19:30:00.082Z,3.4
2024-02-04T19:35:00.195Z,2.8
2024-02-04T19:40:00.138Z,2.7
2024-02-04T19:45:00.076Z,2.5
2024-02-04T19:50:00.401Z,2.6
2024-02-04T19:55:00.126Z,5.4
2024-02-04T20:00:00.132Z,1.8
2024-02-04T20:05:00.105Z,1.9
2024-02-04T20:10:00.092Z,2
2024-02-04T20:15:00.132Z,2
2024-02-04T20:20:00.187Z,2
2024-02-04T20:25:00.115Z,1.5
2024-02-04T20:30:00.066Z,1.4
2024-02-04T20:35:00.156Z,1.2
2024-02-04T20:40:00.097Z,1.3
2024-02-04T20:45:00.074Z,1
2024-02-04T20:50:00.198Z,0.7
2024-02-04T20:55:00.133Z,0.7
2024-02-04T21:00:00.110Z,0.6
2024-02-04T21:05:00.185Z,0.6
2024-02-04T21:10:00.208Z,0.8
2024-02-04T21:15:00.125Z,0.5
2024-02-04T21:20:00.173Z,0.5
2024-02-04T21:25:03.248Z,0.6
2024-02-04T21:30:00.146Z,0.7
2024-02-04T21:35:00.203Z,0.6
2024-02-04T21:40:00.100Z,0.5
2024-02-04T21:45:00.112Z,0.5
2024-02-04T21:50:00.159Z,0.6
2024-02-04T21:55:00.151Z,0.5
2024-02-04T22:00:00.111Z,0.4
2024-02-04T22:05:00.155Z,0.4
2024-02-04T22:10:00.098Z,0.3
2024-02-04T22:15:00.125Z,0.3
2024-02-04T22:20:00.089Z,0.3
2024-02-04T22:25:00.099Z,0.4
2024-02-04T22:30:00.087Z,0.4
2024-02-04T22:35:00.205Z,0.3
2024-02-04T22:40:00.114Z,0.4
2024-02-04T22:45:00.087Z,0.3
2024-02-04T22:50:00.357Z,0.3
2024-02-04T22:55:00.128Z,0.3
2024-02-04T23:00:00.113Z,0.2
2024-02-04T23:05:00.108Z,0.2
2024-02-04T23:10:00.111Z,0.1
2024-02-04T23:15:00.132Z,0.2
2024-02-04T23:20:01.833Z,0.1
2024-02-04T23:25:00.100Z,0.3
2024-02-04T23:30:00.107Z,0.3
2024-02-04T23:35:00.198Z,0.4
2024-02-04T23:40:00.130Z,0.5
2024-02-04T23:45:00.075Z,0.6
2024-02-04T23:50:00.249Z,0.8
2024-02-04T23:55:00.158Z,0.8
